Paxville, South Carolina
Current Conditions -  °F | °C
As of 2:55 PM on Monday 22 Dec 2014 (Local Time) from KSMS Reporting Station
Overcast Overcast  
Wind Chill:   Ceiling: 600
Heat Index:   Visibility: 9mi
Dew Point:   Wind: 5mph
Humidity: 93%   Direction: NA
Pressure: 29.99"   Gusts: NA
Location:  33.6434°N, 80.1966°W
Report Text: KSMS 221955Z AUTO VRB04KT 9SM OVC006 07/06 A2999 RMK AO2
Loading
Personal Weather Stations






























Interactive Weather Map New forecast layout! Learn more

10-Day Weather Forecast

Advertisements
Track Severe Weather on mobile